Dati Storici

Data ora Umidita' aria (%) Temperatura aria (°C) Rad globale (W/m²) Gonioanemometro (°) Tacoanemometro (m/s) Pioggia (mm)
02-07-2020 23:30 88.8 % 23.108 -71.49 1.417 0 0
02-07-2020 23:20 89.1 % 22.983 -67.214 1.161 0 0
02-07-2020 23:10 87.5 % 23.026 -63.217 0.758 0 0
02-07-2020 23:00 85.9 % 23.277 -58.987 0.315 0 0
02-07-2020 22:50 84.6 % 23.519 -48.651 1.626 0 0
02-07-2020 22:40 83.2 % 23.66 -47.689 1.301 0 0
02-07-2020 22:30 82.5 % 23.928 9.431 0.623 0 0
02-07-2020 22:20 81.6 % 24.204 -77.28 -0.019 0 0
02-07-2020 22:10 82.3 % 24.072 -77.688 -0.02 0 0
02-07-2020 22:00 82.4 % 23.687 0.915 -0.02 0 0
02-07-2020 21:50 81.4 % 23.944 15.491 -0.021 0 0
02-07-2020 21:40 79.2 % 24.4 -61.51 -0.021 0 0
02-07-2020 21:30 79.2 % 24.574 -76.107 -0.02 0 0
02-07-2020 21:20 78.4 % 24.546 -47.831 -0.02 0 0
02-07-2020 21:10 79.3 % 24.636 -61.694 -0.023 0 0
02-07-2020 21:00 78.9 % 24.533 -73.175 0.113 0 0
02-07-2020 20:50 76.5 % 24.416 -46.495 -0.024 0 0
02-07-2020 20:40 74.9 % 24.564 -58.17 -0.024 0 0
02-07-2020 20:30 72.9 % 24.902 -66.772 0.767 0 0
02-07-2020 20:20 72.5 % 24.841 -67.288 -0.028 0 0

I dati sono presentati in modo automatico a scopo informativo. In seguito a verifica i dati possono subire modifiche o essere invalidati e non riportati negli archivi definitivi.